createdAt,value
2023-05-15T00:02:17.836Z,99526.66
2023-05-15T00:05:07.141Z,99522.19
2023-05-15T00:07:55.144Z,99520.94
2023-05-15T00:10:57.536Z,99526.84
2023-05-15T00:13:48.438Z,99522.31
2023-05-15T00:16:36.969Z,99520.50
2023-05-15T00:19:25.008Z,99524.25
2023-05-15T00:22:13.381Z,99527.59
2023-05-15T00:25:01.295Z,99532.00
2023-05-15T00:27:50.889Z,99528.63
2023-05-15T00:30:38.833Z,99521.19
2023-05-15T00:33:28.085Z,99519.94
2023-05-15T00:36:17.390Z,99518.31
2023-05-15T00:39:05.839Z,99522.59
2023-05-15T00:41:54.693Z,99518.69
2023-05-15T00:44:46.076Z,99521.03
2023-05-15T00:47:35.600Z,99529.75
2023-05-15T00:50:24.796Z,99519.09
2023-05-15T00:53:12.776Z,99517.81
2023-05-15T00:56:02.197Z,99520.81
2023-05-15T00:58:51.977Z,99517.66
2023-05-15T01:01:41.745Z,99517.09
2023-05-15T01:04:29.956Z,99509.44
2023-05-15T01:07:18.479Z,99509.81
2023-05-15T01:10:09.024Z,99515.50
2023-05-15T01:12:59.681Z,99509.34
2023-05-15T01:15:47.617Z,99502.75
2023-05-15T01:18:37.842Z,99513.03
2023-05-15T01:22:01.099Z,99512.72
2023-05-15T01:25:16.061Z,99511.56
2023-05-15T01:28:08.826Z,99520.94
2023-05-15T01:30:58.201Z,99522.44
2023-05-15T01:33:51.145Z,99531.63
2023-05-15T01:36:44.160Z,99527.81
2023-05-15T01:39:35.161Z,99511.88
2023-05-15T01:42:28.493Z,99517.94
2023-05-15T01:45:19.467Z,99518.56
2023-05-15T01:48:09.329Z,99517.75
2023-05-15T01:51:02.351Z,99515.28
2023-05-15T01:53:51.262Z,99515.13
2023-05-15T01:56:45.348Z,99513.53
2023-05-15T01:59:35.852Z,99511.25
2023-05-15T02:02:26.659Z,99522.13
2023-05-15T02:05:18.901Z,99516.22
2023-05-15T02:08:09.436Z,99523.44
2023-05-15T02:10:59.385Z,99520.97
2023-05-15T02:13:48.221Z,99511.19
2023-05-15T02:16:36.825Z,99501.63
2023-05-15T02:19:26.231Z,99511.44
2023-05-15T02:22:14.433Z,99510.03
2023-05-15T02:25:02.363Z,99520.25
2023-05-15T02:27:59.978Z,99504.75
2023-05-15T02:30:55.877Z,99511.28
2023-05-15T02:33:52.060Z,99501.03
2023-05-15T02:36:45.597Z,99510.41
2023-05-15T02:39:34.450Z,99498.38
2023-05-15T02:42:23.671Z,99497.75
2023-05-15T02:45:13.269Z,99493.06
2023-05-15T02:48:02.676Z,99499.84
2023-05-15T02:50:50.713Z,99492.84
2023-05-15T02:53:42.318Z,99494.91
2023-05-15T02:56:30.291Z,99501.03
2023-05-15T02:59:20.302Z,99507.00
2023-05-15T03:02:08.274Z,99500.88
2023-05-15T03:04:56.539Z,99494.75
2023-05-15T03:07:44.493Z,99496.22
2023-05-15T03:10:34.095Z,99493.75
2023-05-15T03:13:22.051Z,99496.22
2023-05-15T03:16:10.455Z,99497.22
2023-05-15T03:18:58.506Z,99485.81
2023-05-15T03:21:46.814Z,99494.41
2023-05-15T03:24:34.784Z,99486.38
2023-05-15T03:27:24.333Z,99490.94
2023-05-15T03:30:12.435Z,99486.81
2023-05-15T03:33:03.854Z,99491.53
2023-05-15T03:35:52.455Z,99499.28
2023-05-15T03:38:41.732Z,99498.06
2023-05-15T03:41:29.785Z,99505.59
2023-05-15T03:44:19.275Z,99509.50
2023-05-15T03:47:08.300Z,99512.97
2023-05-15T03:49:56.469Z,99514.59
2023-05-15T03:52:44.464Z,99515.56
2023-05-15T03:55:32.900Z,99508.44
2023-05-15T03:58:20.801Z,99512.69
2023-05-15T04:01:10.208Z,99515.16
2023-05-15T04:03:58.110Z,99516.56
2023-05-15T04:06:46.520Z,99513.72
2023-05-15T04:09:34.640Z,99508.00
2023-05-15T04:12:22.773Z,99514.53
2023-05-15T04:15:21.900Z,99521.88
2023-05-15T04:18:11.376Z,99519.00
2023-05-15T04:20:59.255Z,99524.53
2023-05-15T04:23:47.883Z,99523.31
2023-05-15T04:26:36.483Z,99523.13
2023-05-15T04:29:25.027Z,99534.97
2023-05-15T04:32:12.991Z,99522.72
2023-05-15T04:35:02.551Z,99529.28
2023-05-15T04:37:50.504Z,99526.22
2023-05-15T04:40:38.447Z,99530.50
2023-05-15T04:43:26.646Z,99522.56
2023-05-15T04:46:14.690Z,99514.38
2023-05-15T04:49:02.988Z,99510.50
2023-05-15T04:51:52.228Z,99516.41
2023-05-15T04:54:40.268Z,99529.31
2023-05-15T04:57:28.327Z,99528.88
2023-05-15T05:00:17.247Z,99529.69
2023-05-15T05:03:05.364Z,99534.56
2023-05-15T05:05:53.287Z,99533.97
2023-05-15T05:08:42.919Z,99523.94
2023-05-15T05:11:30.805Z,99525.16
2023-05-15T05:14:18.999Z,99530.50
2023-05-15T05:17:06.934Z,99516.81
2023-05-15T05:19:55.007Z,99538.19
2023-05-15T05:22:42.956Z,99530.34
2023-05-15T05:25:32.572Z,99534.38
2023-05-15T05:28:20.511Z,99531.19
2023-05-15T05:31:08.486Z,99540.50
2023-05-15T05:33:57.048Z,99537.13
2023-05-15T05:36:44.952Z,99535.91
2023-05-15T05:39:33.229Z,99531.38
2023-05-15T05:42:22.499Z,99536.53
2023-05-15T05:45:11.556Z,99540.41
2023-05-15T05:47:59.797Z,99545.22
2023-05-15T05:50:48.024Z,99542.78
2023-05-15T05:53:37.542Z,99540.13
2023-05-15T05:56:26.568Z,99544.19
2023-05-15T05:59:16.400Z,99545.59
2023-05-15T06:02:05.038Z,99541.16
2023-05-15T06:04:53.293Z,99545.38
2023-05-15T06:07:41.347Z,99553.31
2023-05-15T06:10:29.938Z,99558.72
2023-05-15T06:13:17.906Z,99552.13
2023-05-15T06:16:07.877Z,99545.97
2023-05-15T06:18:56.180Z,99556.38
2023-05-15T06:21:44.176Z,99548.16
2023-05-15T06:24:32.883Z,99539.69
2023-05-15T06:27:20.964Z,99541.75
2023-05-15T06:30:10.309Z,99539.59
2023-05-15T06:32:59.870Z,99550.44
2023-05-15T06:35:48.317Z,99547.00
2023-05-15T06:38:36.571Z,99552.72
2023-05-15T06:41:24.526Z,99548.88
2023-05-15T06:44:12.727Z,99552.81
2023-05-15T06:47:00.912Z,99553.13
2023-05-15T06:49:50.404Z,99545.56
2023-05-15T06:52:38.368Z,99554.28
2023-05-15T06:55:26.898Z,99562.63
2023-05-15T06:58:17.838Z,99555.88
2023-05-15T07:01:07.389Z,99560.31
2023-05-15T07:03:55.611Z,99556.94
2023-05-15T07:06:45.508Z,99559.16
2023-05-15T07:09:33.437Z,99560.06
2023-05-15T07:12:21.589Z,99559.19
2023-05-15T07:15:10.313Z,99561.47
2023-05-15T07:17:58.507Z,99564.47
2023-05-15T07:20:46.532Z,99560.81
2023-05-15T07:23:35.815Z,99572.97
2023-05-15T07:26:32.817Z,99557.84
2023-05-15T07:29:24.714Z,99569.97
2023-05-15T07:32:12.629Z,99564.31
2023-05-15T07:35:00.809Z,99561.41
2023-05-15T07:37:49.163Z,99564.06
2023-05-15T07:40:38.579Z,99560.34
2023-05-15T07:43:26.867Z,99560.75
2023-05-15T07:46:14.860Z,99557.75
2023-05-15T07:49:03.116Z,99554.59
2023-05-15T07:51:51.129Z,99554.84
2023-05-15T07:54:39.759Z,99542.75
2023-05-15T07:57:29.023Z,99544.34
2023-05-15T08:00:19.023Z,99540.91
2023-05-15T08:03:07.167Z,99542.78
2023-05-15T08:05:55.514Z,99542.53
2023-05-15T08:08:43.654Z,99544.38
2023-05-15T08:11:31.672Z,99542.75
2023-05-15T08:14:20.983Z,99544.09
2023-05-15T08:17:09.881Z,99551.25
2023-05-15T08:19:57.817Z,99551.59
2023-05-15T08:22:45.968Z,99553.72
2023-05-15T08:25:33.918Z,99554.66
2023-05-15T08:28:22.236Z,99559.84
2023-05-15T08:31:11.491Z,99552.09
2023-05-15T08:33:59.608Z,99554.97
2023-05-15T08:36:47.544Z,99543.06
2023-05-15T08:39:35.744Z,99549.59
2023-05-15T08:42:29.241Z,99554.16
2023-05-15T08:45:17.534Z,99547.19
2023-05-15T08:48:12.262Z,99544.69
2023-05-15T08:51:01.678Z,99471.00
2023-05-15T08:53:50.715Z,99542.66
2023-05-15T08:56:38.985Z,99537.84
2023-05-15T08:59:27.311Z,99537.03
2023-05-15T09:02:17.088Z,99541.84
2023-05-15T09:05:07.439Z,99539.75
2023-05-15T09:07:56.773Z,99536.75
2023-05-15T09:10:45.584Z,99531.94
2023-05-15T09:13:33.671Z,99533.59
2023-05-15T09:16:22.315Z,99520.66
2023-05-15T09:19:11.527Z,99536.00
2023-05-15T09:22:16.539Z,99529.28
2023-05-15T09:25:06.695Z,99522.25
2023-05-15T09:27:54.958Z,99526.00
2023-05-15T09:30:43.972Z,99522.81
2023-05-15T09:33:34.891Z,99527.56
2023-05-15T09:36:24.134Z,99535.28
2023-05-15T09:39:13.411Z,99520.50
2023-05-15T09:42:08.766Z,99523.47
2023-05-15T09:44:56.708Z,99524.97
2023-05-15T09:47:45.464Z,99517.41
2023-05-15T09:50:35.214Z,99514.56
2023-05-15T09:53:23.882Z,99513.41
2023-05-15T09:56:13.362Z,99514.97
2023-05-15T09:59:01.607Z,99510.78
2023-05-15T10:01:50.701Z,99502.97
2023-05-15T10:04:39.927Z,99500.16
2023-05-15T10:07:32.119Z,99505.34
2023-05-15T10:10:20.596Z,99497.75
2023-05-15T10:13:11.995Z,99490.38
2023-05-15T10:16:02.271Z,99496.16
2023-05-15T10:18:52.299Z,99486.03
2023-05-15T10:21:42.201Z,99497.50
2023-05-15T10:24:32.297Z,99485.63
2023-05-15T10:27:21.914Z,99487.88
2023-05-15T10:30:12.540Z,99470.75
2023-05-15T10:33:02.190Z,99465.13
2023-05-15T10:35:52.251Z,99472.47
2023-05-15T10:38:41.214Z,99470.44
2023-05-15T10:41:31.386Z,99466.19
2023-05-15T10:44:20.286Z,99457.84
2023-05-15T10:47:10.535Z,99458.88
2023-05-15T10:49:58.955Z,99452.69
2023-05-15T10:52:47.216Z,99446.88
2023-05-15T10:55:35.143Z,99446.69
2023-05-15T10:58:24.581Z,99442.38
2023-05-15T11:01:25.970Z,99439.09
2023-05-15T11:04:17.525Z,99438.09
2023-05-15T11:07:14.332Z,99427.47
2023-05-15T11:10:38.850Z,99424.94
2023-05-15T11:13:27.410Z,99411.94
2023-05-15T11:16:36.488Z,99417.63
2023-05-15T11:19:34.804Z,99417.59
2023-05-15T11:22:28.668Z,99408.84
2023-05-15T11:25:17.331Z,99404.91
2023-05-15T11:28:07.729Z,99414.66
2023-05-15T11:31:03.304Z,99403.44
2023-05-15T11:33:52.469Z,99399.56
2023-05-15T11:36:44.095Z,99391.34
2023-05-15T11:39:40.211Z,99390.53
2023-05-15T11:42:28.961Z,99390.22
2023-05-15T11:45:17.350Z,99393.22
2023-05-15T11:48:07.749Z,99390.41
2023-05-15T11:50:56.397Z,99399.34
2023-05-15T11:53:46.445Z,99399.69
2023-05-15T11:56:34.919Z,99412.69
2023-05-15T11:59:22.833Z,99407.91
2023-05-15T12:02:11.275Z,99410.81
2023-05-15T12:04:59.211Z,99422.84
2023-05-15T12:07:47.775Z,99406.94
2023-05-15T12:10:16.756Z,99409.28
2023-05-15T12:12:46.259Z,99417.91
2023-05-15T12:15:15.772Z,99408.16
2023-05-15T12:17:45.220Z,99409.09
2023-05-15T12:20:17.575Z,99412.94
2023-05-15T12:22:45.853Z,99407.50
2023-05-15T12:25:16.320Z,99411.53
2023-05-15T12:27:45.702Z,99402.53
2023-05-15T12:30:15.445Z,99409.53
2023-05-15T12:32:43.704Z,99400.88
2023-05-15T12:35:12.706Z,99405.38
2023-05-15T12:37:41.210Z,99406.13
2023-05-15T12:40:10.583Z,99408.13
2023-05-15T12:42:42.631Z,99406.75
2023-05-15T12:45:17.210Z,99396.41
2023-05-15T12:47:47.113Z,99401.78
2023-05-15T12:50:16.633Z,99400.91
2023-05-15T12:52:49.027Z,99377.41
2023-05-15T12:55:18.159Z,99397.25
2023-05-15T12:57:46.084Z,99397.84
2023-05-15T13:00:16.622Z,99399.25
2023-05-15T13:02:45.779Z,99399.44
2023-05-15T13:05:14.752Z,99391.84
2023-05-15T13:07:43.030Z,99393.44
2023-05-15T13:10:13.042Z,99385.94
2023-05-15T13:12:43.945Z,99382.84
2023-05-15T13:15:26.346Z,99383.13
2023-05-15T13:18:00.494Z,99385.13
2023-05-15T13:20:29.273Z,99385.00
2023-05-15T13:22:56.950Z,99383.03
2023-05-15T13:25:25.282Z,99381.34
2023-05-15T13:27:52.980Z,99381.56
2023-05-15T13:30:20.949Z,99373.50
2023-05-15T13:32:50.002Z,99392.59
2023-05-15T13:35:17.731Z,99393.75
2023-05-15T13:37:45.894Z,99387.19
2023-05-15T13:40:14.369Z,99388.28
2023-05-15T13:42:44.887Z,99392.41
2023-05-15T13:45:15.133Z,99392.19
2023-05-15T13:47:43.694Z,99360.47
2023-05-15T13:50:14.789Z,99399.88
2023-05-15T13:52:43.563Z,99379.22
2023-05-15T13:55:11.966Z,99380.88
2023-05-15T13:57:41.171Z,99368.97
2023-05-15T14:00:12.514Z,99378.81
2023-05-15T14:02:41.425Z,99371.59
2023-05-15T14:05:09.875Z,99379.38
2023-05-15T14:07:39.708Z,99372.66
2023-05-15T14:10:08.606Z,99369.41
2023-05-15T14:12:37.520Z,99369.88
2023-05-15T14:15:05.884Z,99373.47
2023-05-15T14:17:33.737Z,99384.41
2023-05-15T14:20:01.344Z,99382.28
2023-05-15T14:22:29.161Z,99377.53
2023-05-15T14:24:58.187Z,99374.28
2023-05-15T14:27:26.254Z,99383.03
2023-05-15T14:29:53.853Z,99380.38
2023-05-15T14:32:22.158Z,99377.31
2023-05-15T14:34:49.975Z,99380.88
2023-05-15T14:37:17.908Z,99376.63
2023-05-15T14:39:45.536Z,99375.50
2023-05-15T14:42:14.514Z,99372.28
2023-05-15T14:44:42.161Z,99371.09
2023-05-15T14:47:12.430Z,99370.84
2023-05-15T14:49:40.673Z,99359.00
2023-05-15T14:52:10.630Z,99371.16
2023-05-15T14:54:39.696Z,99367.81
2023-05-15T14:57:07.923Z,99367.59
2023-05-15T14:59:37.176Z,99374.25
2023-05-15T15:02:04.962Z,99374.34
2023-05-15T15:04:34.583Z,99380.41
2023-05-15T15:07:04.840Z,99380.28
2023-05-15T15:09:32.706Z,99387.00
2023-05-15T15:12:00.361Z,99376.28
2023-05-15T15:14:28.313Z,99393.03
2023-05-15T15:16:57.291Z,99391.69
2023-05-15T15:19:25.287Z,99393.19
2023-05-15T15:21:52.977Z,99395.53
2023-05-15T15:24:20.847Z,99398.69
2023-05-15T15:26:48.432Z,99397.66
2023-05-15T15:29:16.395Z,99410.59
2023-05-15T15:31:44.116Z,99412.47
2023-05-15T15:34:13.405Z,99415.44
2023-05-15T15:36:41.459Z,99406.38
2023-05-15T15:39:10.158Z,99409.81
2023-05-15T15:41:39.324Z,99406.97
2023-05-15T15:44:07.262Z,99410.88
2023-05-15T15:46:34.908Z,99406.25
2023-05-15T15:49:04.483Z,99419.38
2023-05-15T15:51:34.903Z,99407.88
2023-05-15T15:54:02.717Z,99408.88
2023-05-15T15:56:30.563Z,99405.31
2023-05-15T15:58:58.559Z,99408.25
2023-05-15T16:01:26.337Z,99406.97
2023-05-15T16:03:54.168Z,99399.44
2023-05-15T16:06:21.812Z,99403.28
2023-05-15T16:08:52.348Z,99401.28
2023-05-15T16:11:19.926Z,99402.75
2023-05-15T16:13:47.956Z,99401.03
2023-05-15T16:16:15.605Z,99400.63
2023-05-15T16:18:43.467Z,99393.50
2023-05-15T16:21:11.394Z,99408.38
2023-05-15T16:23:40.688Z,99377.41
2023-05-15T16:26:10.953Z,99414.13
2023-05-15T16:28:38.857Z,99420.72
2023-05-15T16:31:06.601Z,99419.25
2023-05-15T16:33:34.637Z,99423.88
2023-05-15T16:36:05.424Z,99422.03
2023-05-15T16:38:33.114Z,99415.59
2023-05-15T16:41:01.699Z,99410.56
2023-05-15T16:43:30.754Z,99418.13
2023-05-15T16:45:59.177Z,99416.53
2023-05-15T16:48:27.835Z,99410.03
2023-05-15T16:50:55.920Z,99410.00
2023-05-15T16:53:23.703Z,99408.69
2023-05-15T16:55:51.910Z,99409.19
2023-05-15T16:58:20.066Z,99408.41
2023-05-15T17:00:49.412Z,99409.78
2023-05-15T17:03:17.853Z,99412.44
2023-05-15T17:05:46.377Z,99416.22
2023-05-15T17:08:14.206Z,99420.25
2023-05-15T17:10:41.956Z,99425.00
2023-05-15T17:13:09.595Z,99422.94
2023-05-15T17:15:37.373Z,99427.03
2023-05-15T17:18:06.547Z,99430.56
2023-05-15T17:20:34.440Z,99429.50
2023-05-15T17:23:02.028Z,99434.88
2023-05-15T17:25:29.937Z,99435.41
2023-05-15T17:27:57.570Z,99435.94
2023-05-15T17:30:25.722Z,99434.56
2023-05-15T17:32:53.499Z,99440.78
2023-05-15T17:35:22.893Z,99381.63
2023-05-15T17:37:51.579Z,99449.03
2023-05-15T17:40:19.594Z,99455.19
2023-05-15T17:42:47.248Z,99456.34
2023-05-15T17:45:15.088Z,99452.53
2023-05-15T17:47:42.754Z,99470.25
2023-05-15T17:50:11.579Z,99469.47
2023-05-15T17:52:40.552Z,99467.53
2023-05-15T17:55:09.385Z,99459.44
2023-05-15T17:57:36.992Z,99478.91
2023-05-15T18:00:07.331Z,99473.16
2023-05-15T18:02:39.868Z,99474.09
2023-05-15T18:05:08.540Z,99485.41
2023-05-15T18:07:36.175Z,99490.16
2023-05-15T18:10:06.911Z,99489.22
2023-05-15T18:12:35.167Z,99488.34
2023-05-15T18:15:03.194Z,99482.59
2023-05-15T18:17:30.855Z,99486.78
2023-05-15T18:19:58.494Z,99489.81
2023-05-15T18:22:26.262Z,99487.41
2023-05-15T18:24:53.900Z,99494.31
2023-05-15T18:27:22.914Z,99490.03
2023-05-15T18:29:51.500Z,99501.91
2023-05-15T18:32:19.734Z,99498.28
2023-05-15T18:34:47.803Z,99496.31
2023-05-15T18:37:16.129Z,99509.88
2023-05-15T18:39:44.125Z,99505.38
2023-05-15T18:42:11.978Z,99512.91
2023-05-15T18:44:41.197Z,99501.94
2023-05-15T18:47:09.462Z,99509.34
2023-05-15T18:49:37.284Z,99504.63
2023-05-15T18:52:05.839Z,99478.59
2023-05-15T18:54:33.665Z,99516.63
2023-05-15T18:57:02.072Z,99523.63
2023-05-15T18:59:30.019Z,99513.88
2023-05-15T19:01:59.649Z,99522.00
2023-05-15T19:04:27.272Z,99521.53
2023-05-15T19:06:55.120Z,99533.72
2023-05-15T19:09:22.695Z,99531.63
2023-05-15T19:11:52.510Z,99533.47
2023-05-15T19:14:20.196Z,99539.50
2023-05-15T19:16:47.959Z,99530.69
2023-05-15T19:19:17.063Z,99541.25
2023-05-15T19:21:45.180Z,99542.41
2023-05-15T19:24:12.797Z,99540.09
2023-05-15T19:26:40.725Z,99545.34
2023-05-15T19:29:08.340Z,99556.50
2023-05-15T19:31:37.554Z,99553.69
2023-05-15T19:34:05.426Z,99559.03
2023-05-15T19:36:34.592Z,99558.34
2023-05-15T19:39:02.331Z,99563.81
2023-05-15T19:41:30.376Z,99562.06
2023-05-15T19:43:57.978Z,99572.78
2023-05-15T19:46:25.679Z,99583.25
2023-05-15T19:48:53.740Z,99582.44
2023-05-15T19:51:21.429Z,99588.59
2023-05-15T19:53:50.464Z,99591.28
2023-05-15T19:56:18.333Z,99585.94
2023-05-15T19:58:46.265Z,99591.84
2023-05-15T20:01:13.919Z,99589.84
2023-05-15T20:03:41.994Z,99590.13
2023-05-15T20:06:10.268Z,99598.59
2023-05-15T20:08:38.180Z,99599.41
2023-05-15T20:11:07.198Z,99603.47
2023-05-15T20:13:35.449Z,99595.31
2023-05-15T20:16:06.982Z,99596.25
2023-05-15T20:18:35.804Z,99586.44
2023-05-15T20:21:03.414Z,99598.78
2023-05-15T20:23:31.410Z,99594.25
2023-05-15T20:25:59.091Z,99597.59
2023-05-15T20:28:29.189Z,99588.78
2023-05-15T20:30:57.613Z,99594.47
2023-05-15T20:33:25.480Z,99593.78
2023-05-15T20:35:53.946Z,99600.06
2023-05-15T20:38:23.372Z,99602.13
2023-05-15T20:40:51.115Z,99601.31
2023-05-15T20:43:18.770Z,99608.19
2023-05-15T20:45:48.015Z,99602.06
2023-05-15T20:48:15.641Z,99601.06
2023-05-15T20:50:43.617Z,99607.44
2023-05-15T20:53:11.275Z,99602.91
2023-05-15T20:55:39.549Z,99591.66
2023-05-15T20:58:07.621Z,99599.53
2023-05-15T21:00:35.651Z,99599.78
2023-05-15T21:03:05.317Z,99604.66
2023-05-15T21:05:33.101Z,99603.16
2023-05-15T21:08:00.767Z,99603.50
2023-05-15T21:10:28.909Z,99607.94
2023-05-15T21:12:59.135Z,99612.13
2023-05-15T21:15:27.417Z,99604.59
2023-05-15T21:17:55.029Z,99605.41
2023-05-15T21:20:24.486Z,99604.59
2023-05-15T21:22:52.286Z,99603.75
2023-05-15T21:25:20.296Z,99606.66
2023-05-15T21:27:47.889Z,99610.84
2023-05-15T21:30:15.984Z,99612.00
2023-05-15T21:32:44.061Z,99608.97
2023-05-15T21:35:11.778Z,99614.66
2023-05-15T21:37:41.022Z,99608.25
2023-05-15T21:40:09.889Z,99618.63
2023-05-15T21:42:37.826Z,99611.75
2023-05-15T21:45:06.968Z,99619.66
2023-05-15T21:47:35.012Z,99612.88
2023-05-15T21:50:02.828Z,99621.13
2023-05-15T21:52:30.728Z,99614.06
2023-05-15T21:54:59.675Z,99614.72
2023-05-15T21:57:27.270Z,99620.53
2023-05-15T21:59:54.935Z,99613.22
2023-05-15T22:02:23.268Z,99611.84
2023-05-15T22:04:50.925Z,99615.91
2023-05-15T22:07:19.036Z,99611.69
2023-05-15T22:09:46.667Z,99618.31
2023-05-15T22:12:16.080Z,99621.44
2023-05-15T22:14:57.503Z,99626.63
2023-05-15T22:17:27.463Z,99623.09
2023-05-15T22:20:02.516Z,99619.91
2023-05-15T22:22:30.467Z,99622.78
2023-05-15T22:24:58.071Z,99618.25
2023-05-15T22:27:27.950Z,99612.94
2023-05-15T22:29:55.771Z,99618.63
2023-05-15T22:32:23.830Z,99623.50
2023-05-15T22:34:51.561Z,99620.28
2023-05-15T22:37:19.598Z,99630.94
2023-05-15T22:39:47.199Z,99631.63
2023-05-15T22:42:15.080Z,99634.06
2023-05-15T22:44:44.072Z,99635.69
2023-05-15T22:47:11.936Z,99631.97
2023-05-15T22:49:39.708Z,99632.34
2023-05-15T22:52:08.090Z,99638.81
2023-05-15T22:54:35.852Z,99638.81
2023-05-15T22:57:03.441Z,99634.44
2023-05-15T22:59:31.376Z,99637.56
2023-05-15T23:02:00.481Z,99644.88
2023-05-15T23:04:28.721Z,99646.50
2023-05-15T23:06:56.975Z,99643.84
2023-05-15T23:09:24.972Z,99635.16
2023-05-15T23:11:52.645Z,99636.34
2023-05-15T23:14:22.275Z,99639.22
2023-05-15T23:16:50.202Z,99644.84
2023-05-15T23:19:19.635Z,99637.38
2023-05-15T23:21:47.701Z,99637.59
2023-05-15T23:24:16.030Z,99629.00
2023-05-15T23:26:44.184Z,99638.66
2023-05-15T23:29:12.122Z,99638.91
2023-05-15T23:31:39.926Z,99638.78
2023-05-15T23:34:07.862Z,99637.88
2023-05-15T23:36:36.869Z,99638.69
2023-05-15T23:39:05.642Z,99641.50
2023-05-15T23:41:33.555Z,99630.69
2023-05-15T23:44:01.195Z,99632.25
2023-05-15T23:46:29.003Z,99631.94
2023-05-15T23:48:56.673Z,99636.72
2023-05-15T23:51:24.963Z,99643.44
2023-05-15T23:53:54.067Z,99635.53
2023-05-15T23:56:23.457Z,99633.31
2023-05-15T23:58:51.095Z,99633.56
